La Plata, Missouri
Current Conditions -  °F | °C
As of 9:55 AM on Thursday 23 Oct 2014 (Local Time) from KIRK Reporting Station
Scattered Clouds Scattered Clouds  
Wind Chill: 55°   Ceiling: Unl
Heat Index: 55°   Visibility: 10mi
Dew Point: 49°   Wind: 8mph
Humidity: 80%   Direction: 190°S
Pressure: 30.13"   Gusts: NA
Location:  40.02°N, 92.49°W
Report Text: KIRK 231455Z AUTO 19007KT 10SM FEW020 SCT075 13/09 A3013 RMK AO2 SLP209 T01280094 53006
Loading
Personal Weather Stations






























Interactive Weather Map
Tropical Storm Tracking
New forecast layout! Learn more

10-Day Weather Forecast

Advertisements
Track Severe Weather on mobile